< < Back
Terminal Aerodrome Forecast


Current Version              Previous Versions:   1  2  3  4  5  6  7  8  9  

Terminal Aerodrome Forecast

566
FTUS42 KILM 180500
TAFFLO
TAF
KFLO 180528Z 1806/1906 00000KT P6SM BKN250
     FM180800 36003KT P6SM SCT040 SCT150 BKN250
      TEMPO 1808/1812 5SM BR
     FM181400 05007KT P6SM SCT120 BKN250
     FM182300 VRB03KT P6SM SCT060 BKN100=

Latest METAR

038
SAUS70 KWBC 180800 RRL
MTRFLO
METAR KFLO 180753Z AUTO 00000KT 9SM CLR 03/02 A3008 RMK AO2 SLP186
T00280017


USA.gov is the U.S. government's official web portal to all federal, state and local government web resources and services.